createdAt,value
2023-02-07T00:00:20.059Z,-4.26
2023-02-07T00:01:25.922Z,-4.30
2023-02-07T00:02:28.169Z,-4.24
2023-02-07T00:03:32.653Z,-4.24
2023-02-07T00:04:37.222Z,-4.29
2023-02-07T00:05:39.550Z,-4.32
2023-02-07T00:06:44.353Z,-4.30
2023-02-07T00:07:46.310Z,-4.38
2023-02-07T00:08:51.640Z,-4.43
2023-02-07T00:09:57.713Z,-4.50
2023-02-07T00:11:07.323Z,-4.53
2023-02-07T00:12:09.263Z,-4.61
2023-02-07T00:13:13.826Z,-4.63
2023-02-07T00:14:15.732Z,-4.64
2023-02-07T00:15:20.283Z,-4.61
2023-02-07T00:16:23.141Z,-4.63
2023-02-07T00:17:27.980Z,-4.76
2023-02-07T00:18:30.720Z,-4.74
2023-02-07T00:19:35.256Z,-4.76
2023-02-07T00:20:37.414Z,-4.82
2023-02-07T00:21:42.496Z,-4.82
2023-02-07T00:22:45.084Z,-4.89
2023-02-07T00:23:50.171Z,-4.92
2023-02-07T00:24:52.255Z,-4.95
2023-02-07T00:25:59.527Z,-4.96
2023-02-07T00:27:01.566Z,-4.94
2023-02-07T00:28:06.407Z,-4.98
2023-02-07T00:29:08.441Z,-5.03
2023-02-07T00:30:14.581Z,-5.09
2023-02-07T00:31:18.933Z,-5.13
2023-02-07T00:32:23.565Z,-5.15
2023-02-07T00:33:25.648Z,-5.19
2023-02-07T00:34:31.810Z,-5.20
2023-02-07T00:35:33.814Z,-5.25
2023-02-07T00:36:39.366Z,-5.31
2023-02-07T00:37:44.111Z,-5.35
2023-02-07T00:38:47.109Z,-5.34
2023-02-07T00:39:51.757Z,-5.33
2023-02-07T00:40:56.504Z,-5.40
2023-02-07T00:42:01.220Z,-5.46
2023-02-07T00:43:03.415Z,-5.50
2023-02-07T00:44:08.851Z,-5.52
2023-02-07T00:45:10.928Z,-5.46
2023-02-07T00:46:15.708Z,-5.49
2023-02-07T00:47:17.837Z,-5.50
2023-02-07T00:48:22.399Z,-5.47
2023-02-07T00:49:24.454Z,-5.51
2023-02-07T00:50:28.986Z,-5.59
2023-02-07T00:51:31.781Z,-5.61
2023-02-07T00:52:36.920Z,-5.56
2023-02-07T00:53:39.582Z,-5.63
2023-02-07T00:54:44.205Z,-5.64
2023-02-07T00:55:46.368Z,-5.66
2023-02-07T00:56:53.713Z,-5.66
2023-02-07T00:57:55.797Z,-5.67
2023-02-07T00:59:00.631Z,-5.75
2023-02-07T01:00:02.692Z,-5.74
2023-02-07T01:01:07.631Z,-5.80
2023-02-07T01:02:09.699Z,-5.84
2023-02-07T01:03:14.528Z,-5.87
2023-02-07T01:04:16.521Z,-5.91
2023-02-07T01:05:21.324Z,-5.96
2023-02-07T01:06:23.459Z,-5.98
2023-02-07T01:07:28.177Z,-5.99
2023-02-07T01:08:30.252Z,-6.00
2023-02-07T01:09:35.138Z,-6.01
2023-02-07T01:10:39.789Z,-6.02
2023-02-07T01:11:44.360Z,-6.03
2023-02-07T01:12:49.024Z,-6.04
2023-02-07T01:13:53.603Z,-6.04
2023-02-07T01:14:55.617Z,-6.01
2023-02-07T01:16:00.213Z,-5.99
2023-02-07T01:17:02.259Z,-5.99
2023-02-07T01:18:08.000Z,-6.00
2023-02-07T01:19:11.432Z,-5.96
2023-02-07T01:20:16.379Z,-6.02
2023-02-07T01:21:20.617Z,-5.99
2023-02-07T01:22:25.282Z,-6.01
2023-02-07T01:23:27.420Z,-5.99
2023-02-07T01:24:32.580Z,-6.01
2023-02-07T01:25:34.641Z,-6.04
2023-02-07T01:26:40.251Z,-6.09
2023-02-07T01:27:42.281Z,-6.11
2023-02-07T01:28:49.467Z,-6.15
2023-02-07T01:29:51.729Z,-6.12
2023-02-07T01:30:56.353Z,-6.11
2023-02-07T01:31:58.468Z,-6.11
2023-02-07T01:33:03.404Z,-6.09
2023-02-07T01:34:08.023Z,-6.06
2023-02-07T01:35:10.147Z,-6.08
2023-02-07T01:36:17.002Z,-6.08
2023-02-07T01:37:18.990Z,-6.07
2023-02-07T01:38:23.520Z,-6.08
2023-02-07T01:39:25.494Z,-6.11
2023-02-07T01:40:30.207Z,-6.11
2023-02-07T01:41:35.501Z,-6.19
2023-02-07T01:42:37.689Z,-6.15
2023-02-07T01:44:05.618Z,-6.19
2023-02-07T01:45:22.664Z,-6.18
2023-02-07T01:46:27.507Z,-6.14
2023-02-07T01:47:30.439Z,-6.11
2023-02-07T01:48:38.122Z,-6.13
2023-02-07T01:49:40.049Z,-6.13
2023-02-07T01:50:49.391Z,-6.14
2023-02-07T01:51:56.388Z,-6.10
2023-02-07T01:53:03.358Z,-6.14
2023-02-07T01:54:08.333Z,-6.14
2023-02-07T01:55:15.813Z,-6.18
2023-02-07T01:56:30.829Z,-6.17
2023-02-07T01:57:36.641Z,-6.17
2023-02-07T01:58:39.230Z,-6.19
2023-02-07T01:59:47.962Z,-6.14
2023-02-07T02:00:51.368Z,-6.16
2023-02-07T02:02:02.199Z,-6.22
2023-02-07T02:03:05.509Z,-6.27
2023-02-07T02:04:10.326Z,-6.31
2023-02-07T02:05:12.978Z,-6.32
2023-02-07T02:06:18.941Z,-6.36
2023-02-07T02:07:21.970Z,-6.40
2023-02-07T02:08:27.737Z,-6.42
2023-02-07T02:09:30.049Z,-6.45
2023-02-07T02:10:51.469Z,-6.51
2023-02-07T02:12:18.490Z,-6.53
2023-02-07T02:13:31.221Z,-6.53
2023-02-07T02:14:50.916Z,-6.59
2023-02-07T02:16:04.367Z,-6.61
2023-02-07T02:17:15.277Z,-6.60
2023-02-07T02:19:04.165Z,-6.69
2023-02-07T02:20:39.405Z,-6.65
2023-02-07T02:22:23.367Z,-6.66
2023-02-07T02:23:41.468Z,-6.67
2023-02-07T02:25:15.688Z,-6.71
2023-02-07T02:26:49.427Z,-6.67
2023-02-07T02:28:21.993Z,-6.67
2023-02-07T02:29:42.134Z,-6.60
2023-02-07T02:31:06.874Z,-6.63
2023-02-07T02:32:37.078Z,-6.61
2023-02-07T02:33:53.289Z,-6.64
2023-02-07T02:35:03.372Z,-6.62
2023-02-07T02:36:16.997Z,-6.61
2023-02-07T02:37:25.319Z,-6.69
2023-02-07T02:38:36.333Z,-6.68
2023-02-07T02:39:43.682Z,-6.71
2023-02-07T02:40:54.934Z,-6.70
2023-02-07T02:42:01.840Z,-6.72
2023-02-07T02:43:12.371Z,-6.74
2023-02-07T02:44:18.686Z,-6.72
2023-02-07T02:45:30.471Z,-6.71
2023-02-07T02:46:36.153Z,-6.72
2023-02-07T02:47:45.825Z,-6.75
2023-02-07T02:48:51.656Z,-6.77
2023-02-07T02:49:56.144Z,-6.83
2023-02-07T02:50:58.418Z,-6.80
2023-02-07T02:52:03.597Z,-6.83
2023-02-07T02:53:06.196Z,-6.82
2023-02-07T02:54:32.411Z,-6.83
2023-02-07T02:55:56.743Z,-6.85
2023-02-07T02:57:32.171Z,-6.88
2023-02-07T02:58:42.884Z,-6.86
2023-02-07T03:00:01.875Z,-6.87
2023-02-07T03:01:14.323Z,-6.89
2023-02-07T03:02:29.969Z,-6.90
2023-02-07T03:03:58.217Z,-6.94
2023-02-07T03:05:15.241Z,-6.94
2023-02-07T03:06:32.213Z,-6.93
2023-02-07T03:07:52.974Z,-7.00
2023-02-07T03:09:06.282Z,-6.95
2023-02-07T03:10:20.426Z,-6.96
2023-02-07T03:11:24.039Z,-6.87
2023-02-07T03:12:34.176Z,-6.89
2023-02-07T03:13:48.095Z,-6.86
2023-02-07T03:15:02.128Z,-6.84
2023-02-07T03:16:13.816Z,-6.87
2023-02-07T03:17:22.647Z,-6.86
2023-02-07T03:18:32.101Z,-6.86
2023-02-07T03:19:43.724Z,-6.86
2023-02-07T03:20:51.849Z,-6.88
2023-02-07T03:21:57.985Z,-6.88
2023-02-07T03:23:05.092Z,-6.92
2023-02-07T03:24:13.458Z,-6.94
2023-02-07T03:25:19.930Z,-6.93
2023-02-07T03:26:25.171Z,-6.97
2023-02-07T03:27:32.998Z,-6.98
2023-02-07T03:28:37.614Z,-6.91
2023-02-07T03:29:45.616Z,-6.99
2023-02-07T03:30:50.774Z,-6.94
2023-02-07T03:32:00.078Z,-6.96
2023-02-07T03:33:11.825Z,-6.92
2023-02-07T03:34:20.759Z,-6.88
2023-02-07T03:35:29.906Z,-6.85
2023-02-07T03:36:41.649Z,-6.91
2023-02-07T03:37:48.961Z,-6.92
2023-02-07T03:38:54.164Z,-6.93
2023-02-07T03:39:56.882Z,-6.96
2023-02-07T03:41:09.122Z,-7.00
2023-02-07T03:42:19.534Z,-6.92
2023-02-07T03:43:27.485Z,-6.94
2023-02-07T03:44:35.846Z,-6.92
2023-02-07T03:45:38.697Z,-6.92
2023-02-07T03:46:43.823Z,-6.93
2023-02-07T03:47:46.044Z,-7.01
2023-02-07T03:48:50.565Z,-7.01
2023-02-07T03:49:52.598Z,-6.98
2023-02-07T03:50:59.721Z,-7.02
2023-02-07T03:52:01.857Z,-7.01
2023-02-07T03:53:06.590Z,-6.97
2023-02-07T03:54:08.978Z,-7.03
2023-02-07T03:55:13.723Z,-7.04
2023-02-07T03:56:15.642Z,-7.09
2023-02-07T03:57:20.326Z,-7.10
2023-02-07T03:58:22.322Z,-7.14
2023-02-07T03:59:26.850Z,-7.01
2023-02-07T04:00:28.827Z,-7.05
2023-02-07T04:01:33.597Z,-7.07
2023-02-07T04:02:35.529Z,-7.14
2023-02-07T04:03:40.316Z,-7.17
2023-02-07T04:04:42.455Z,-7.05
2023-02-07T04:05:49.577Z,-7.09
2023-02-07T04:06:54.106Z,-7.07
2023-02-07T04:07:58.701Z,-7.06
2023-02-07T04:09:00.730Z,-7.08
2023-02-07T04:10:05.600Z,-7.05
2023-02-07T04:11:07.644Z,-7.08
2023-02-07T04:12:12.233Z,-7.10
2023-02-07T04:13:14.258Z,-7.11
2023-02-07T04:14:20.046Z,-7.10
2023-02-07T04:15:22.055Z,-7.14
2023-02-07T04:16:26.661Z,-7.12
2023-02-07T04:17:31.153Z,-7.14
2023-02-07T04:18:36.439Z,-7.12
2023-02-07T04:19:38.424Z,-7.14
2023-02-07T04:20:42.953Z,-7.11
2023-02-07T04:21:45.160Z,-7.10
2023-02-07T04:22:52.287Z,-7.10
2023-02-07T04:23:54.251Z,-7.06
2023-02-07T04:24:58.795Z,-7.11
2023-02-07T04:26:00.867Z,-7.03
2023-02-07T04:27:05.377Z,-7.07
2023-02-07T04:28:07.546Z,-7.04
2023-02-07T04:29:12.585Z,-7.07
2023-02-07T04:30:17.131Z,-7.02
2023-02-07T04:31:19.121Z,-7.07
2023-02-07T04:32:23.667Z,-7.06
2023-02-07T04:33:25.656Z,-7.10
2023-02-07T04:34:30.262Z,-7.15
2023-02-07T04:35:32.284Z,-7.22
2023-02-07T04:36:36.873Z,-7.23
2023-02-07T04:37:38.979Z,-7.25
2023-02-07T04:38:46.137Z,-7.26
2023-02-07T04:39:48.154Z,-7.25
2023-02-07T04:40:52.814Z,-7.23
2023-02-07T04:41:55.094Z,-7.16
2023-02-07T04:42:59.678Z,-7.20
2023-02-07T04:44:01.643Z,-7.23
2023-02-07T04:45:06.287Z,-7.21
2023-02-07T04:46:08.683Z,-7.12
2023-02-07T04:47:13.265Z,-7.15
2023-02-07T04:48:15.359Z,-7.17
2023-02-07T04:49:20.211Z,-7.19
2023-02-07T04:50:22.218Z,-7.25
2023-02-07T04:51:26.797Z,-7.26
2023-02-07T04:52:28.815Z,-7.29
2023-02-07T04:53:33.306Z,-7.25
2023-02-07T04:54:37.861Z,-7.27
2023-02-07T04:55:42.383Z,-7.32
2023-02-07T04:56:44.320Z,-7.31
2023-02-07T04:57:49.132Z,-7.27
2023-02-07T04:58:51.092Z,-7.25
2023-02-07T04:59:56.003Z,-7.26
2023-02-07T05:00:58.143Z,-7.25
2023-02-07T05:02:02.650Z,-7.22
2023-02-07T05:03:07.416Z,-7.26
2023-02-07T05:04:09.445Z,-7.20
2023-02-07T05:05:14.017Z,-7.26
2023-02-07T05:06:15.960Z,-7.24
2023-02-07T05:07:20.752Z,-7.18
2023-02-07T05:08:22.958Z,-7.22
2023-02-07T05:09:28.218Z,-7.18
2023-02-07T05:10:32.837Z,-7.22
2023-02-07T05:11:37.450Z,-7.25
2023-02-07T05:12:39.447Z,-7.31
2023-02-07T05:13:43.958Z,-7.33
2023-02-07T05:14:46.028Z,-7.33
2023-02-07T05:15:50.648Z,-7.32
2023-02-07T05:16:52.590Z,-7.27
2023-02-07T05:17:58.713Z,-7.31
2023-02-07T05:19:03.275Z,-7.34
2023-02-07T05:20:05.958Z,-7.38
2023-02-07T05:21:11.452Z,-7.42
2023-02-07T05:22:13.771Z,-7.44
2023-02-07T05:23:18.729Z,-7.43
2023-02-07T05:24:21.096Z,-7.34
2023-02-07T05:25:25.834Z,-7.38
2023-02-07T05:26:30.381Z,-7.33
2023-02-07T05:27:34.935Z,-7.30
2023-02-07T05:28:39.445Z,-7.32
2023-02-07T05:29:41.395Z,-7.32
2023-02-07T05:30:46.173Z,-7.31
2023-02-07T05:32:04.741Z,-7.29
2023-02-07T05:33:08.822Z,-7.35
2023-02-07T05:34:13.373Z,-7.35
2023-02-07T05:35:15.820Z,-7.43
2023-02-07T05:36:20.346Z,-7.38
2023-02-07T05:37:22.369Z,-7.44
2023-02-07T05:38:26.904Z,-7.47
2023-02-07T05:39:28.998Z,-7.52
2023-02-07T05:40:33.863Z,-7.56
2023-02-07T05:41:38.396Z,-7.60
2023-02-07T05:42:43.446Z,-7.58
2023-02-07T05:43:45.428Z,-7.60
2023-02-07T05:44:49.969Z,-7.62
2023-02-07T05:45:51.914Z,-7.69
2023-02-07T05:46:56.481Z,-7.69
2023-02-07T05:47:58.803Z,-7.72
2023-02-07T05:49:03.330Z,-7.71
2023-02-07T05:50:08.304Z,-7.81
2023-02-07T05:51:12.863Z,-7.84
2023-02-07T05:52:15.028Z,-7.88
2023-02-07T05:53:19.718Z,-7.86
2023-02-07T05:54:21.921Z,-7.93
2023-02-07T05:55:26.560Z,-7.91
2023-02-07T05:56:28.470Z,-7.84
2023-02-07T05:57:35.927Z,-7.88
2023-02-07T05:58:37.887Z,-7.86
2023-02-07T05:59:42.397Z,-7.78
2023-02-07T06:00:44.578Z,-7.88
2023-02-07T06:01:49.086Z,-7.85
2023-02-07T06:02:51.119Z,-7.88
2023-02-07T06:03:55.836Z,-7.93
2023-02-07T06:04:57.768Z,-7.93
2023-02-07T06:06:02.335Z,-7.97
2023-02-07T06:07:04.382Z,-8.05
2023-02-07T06:08:08.919Z,-8.07
2023-02-07T06:09:10.882Z,-8.17
2023-02-07T06:10:16.508Z,-8.24
2023-02-07T06:11:18.439Z,-8.26
2023-02-07T06:12:22.933Z,-8.33
2023-02-07T06:13:27.485Z,-8.38
2023-02-07T06:14:32.053Z,-8.35
2023-02-07T06:15:34.078Z,-8.34
2023-02-07T06:16:38.679Z,-8.30
2023-02-07T06:17:40.627Z,-8.35
2023-02-07T06:18:45.224Z,-8.31
2023-02-07T06:19:47.158Z,-8.31
2023-02-07T06:20:53.109Z,-8.30
2023-02-07T06:21:55.129Z,-8.29
2023-02-07T06:22:59.711Z,-8.35
2023-02-07T06:24:01.682Z,-8.27
2023-02-07T06:25:08.449Z,-8.33
2023-02-07T06:26:10.411Z,-8.31
2023-02-07T06:27:14.932Z,-8.28
2023-02-07T06:28:16.910Z,-8.35
2023-02-07T06:29:24.452Z,-8.29
2023-02-07T06:30:26.769Z,-8.26
2023-02-07T06:31:31.331Z,-8.27
2023-02-07T06:32:36.048Z,-8.23
2023-02-07T06:33:38.047Z,-8.22
2023-02-07T06:34:42.579Z,-8.12
2023-02-07T06:35:47.449Z,-8.11
2023-02-07T06:36:52.020Z,-8.12
2023-02-07T06:37:55.169Z,-8.17
2023-02-07T06:39:00.480Z,-8.13
2023-02-07T06:40:03.405Z,-8.06
2023-02-07T06:41:11.035Z,-8.05
2023-02-07T06:42:15.607Z,-8.03
2023-02-07T06:43:17.848Z,-8.02
2023-02-07T06:44:25.115Z,-7.99
2023-02-07T06:45:27.179Z,-8.00
2023-02-07T06:46:32.025Z,-8.02
2023-02-07T06:47:34.169Z,-8.10
2023-02-07T06:48:38.720Z,-8.15
2023-02-07T06:49:43.513Z,-8.03
2023-02-07T06:50:45.542Z,-8.03
2023-02-07T06:51:50.014Z,-8.05
2023-02-07T06:52:51.986Z,-8.03
2023-02-07T06:53:56.523Z,-8.06
2023-02-07T06:55:01.062Z,-8.00
2023-02-07T06:56:03.505Z,-8.06
2023-02-07T06:57:08.468Z,-8.07
2023-02-07T06:58:10.921Z,-8.05
2023-02-07T06:59:15.527Z,-7.96
2023-02-07T07:00:22.022Z,-7.95
2023-02-07T07:01:26.656Z,-7.90
2023-02-07T07:02:28.664Z,-7.92
2023-02-07T07:03:33.404Z,-7.89
2023-02-07T07:04:37.915Z,-7.85
2023-02-07T07:05:40.038Z,-7.76
2023-02-07T07:06:44.640Z,-7.68
2023-02-07T07:07:46.737Z,-7.66
2023-02-07T07:08:51.886Z,-7.64
2023-02-07T07:09:56.490Z,-7.62
2023-02-07T07:10:58.539Z,-7.63
2023-02-07T07:12:04.733Z,-7.59
2023-02-07T07:13:09.327Z,-7.57
2023-02-07T07:14:14.790Z,-7.51
2023-02-07T07:15:19.586Z,-7.49
2023-02-07T07:16:24.242Z,-7.50
2023-02-07T07:17:26.607Z,-7.44
2023-02-07T07:18:31.190Z,-7.40
2023-02-07T07:19:35.698Z,-7.38
2023-02-07T07:20:37.635Z,-7.34
2023-02-07T07:21:42.148Z,-7.31
2023-02-07T07:22:47.275Z,-7.31
2023-02-07T07:23:49.228Z,-7.26
2023-02-07T07:24:53.844Z,-7.24
2023-02-07T07:25:55.762Z,-7.27
2023-02-07T07:27:00.267Z,-7.27
2023-02-07T07:28:02.306Z,-7.25
2023-02-07T07:29:08.382Z,-7.22
2023-02-07T07:30:14.559Z,-7.18
2023-02-07T07:31:21.723Z,-7.18
2023-02-07T07:32:33.623Z,-7.13
2023-02-07T07:33:39.302Z,-7.10
2023-02-07T07:34:41.393Z,-7.09
2023-02-07T07:35:46.168Z,-7.03
2023-02-07T07:36:50.725Z,-7.02
2023-02-07T07:37:52.681Z,-7.00
2023-02-07T07:38:57.243Z,-6.95
2023-02-07T07:40:01.960Z,-6.90
2023-02-07T07:41:06.957Z,-6.91
2023-02-07T07:42:11.486Z,-6.91
2023-02-07T07:43:13.434Z,-6.85
2023-02-07T07:44:18.056Z,-6.81
2023-02-07T07:45:22.677Z,-6.79
2023-02-07T07:46:29.897Z,-6.76
2023-02-07T07:47:31.864Z,-6.76
2023-02-07T07:48:36.435Z,-6.68
2023-02-07T07:49:38.359Z,-6.68
2023-02-07T07:50:42.987Z,-6.61
2023-02-07T07:51:47.608Z,-6.58
2023-02-07T07:52:52.124Z,-6.60
2023-02-07T07:53:56.641Z,-6.55
2023-02-07T07:55:01.276Z,-6.47
2023-02-07T07:56:03.708Z,-6.42
2023-02-07T07:57:08.220Z,-6.36
2023-02-07T07:58:12.720Z,-6.23
2023-02-07T07:59:24.001Z,-6.00
2023-02-07T08:00:28.984Z,-5.69
2023-02-07T08:01:36.351Z,-5.30
2023-02-07T08:02:38.381Z,-4.98
2023-02-07T08:03:42.933Z,-4.76
2023-02-07T08:04:47.609Z,-4.51
2023-02-07T08:05:52.821Z,-4.18
2023-02-07T08:06:57.646Z,-4.06
2023-02-07T08:08:02.190Z,-3.69
2023-02-07T08:09:06.864Z,-3.50
2023-02-07T08:10:11.830Z,-3.33
2023-02-07T08:11:16.368Z,-3.08
2023-02-07T08:12:21.238Z,-2.91
2023-02-07T08:13:29.436Z,-2.70
2023-02-07T08:14:31.687Z,-2.60
2023-02-07T08:15:36.301Z,-2.22
2023-02-07T08:16:43.380Z,-2.09
2023-02-07T08:17:45.417Z,-1.80
2023-02-07T08:18:49.975Z,-1.62
2023-02-07T08:19:54.446Z,-1.65
2023-02-07T08:20:59.452Z,-1.47
2023-02-07T08:22:01.441Z,-1.37
2023-02-07T08:23:06.155Z,-1.47
2023-02-07T08:24:11.076Z,-1.15
2023-02-07T08:25:13.201Z,-0.69
2023-02-07T08:26:17.726Z,-0.50
2023-02-07T08:27:19.864Z,-0.20
2023-02-07T08:28:24.903Z,-0.02
2023-02-07T08:29:29.479Z,-0.06
2023-02-07T08:30:34.003Z,0.32
2023-02-07T08:31:38.602Z,0.60
2023-02-07T08:32:45.719Z,0.84
2023-02-07T08:33:47.651Z,0.83
2023-02-07T08:34:52.216Z,0.70
2023-02-07T08:35:54.259Z,0.65
2023-02-07T08:36:58.747Z,0.58
2023-02-07T08:38:03.361Z,0.98
2023-02-07T08:39:08.034Z,0.84
2023-02-07T08:40:13.608Z,1.03
2023-02-07T08:41:18.088Z,0.32
2023-02-07T08:42:23.279Z,0.40
2023-02-07T08:43:27.864Z,0.91
2023-02-07T08:44:32.654Z,1.14
2023-02-07T08:45:37.174Z,1.48
2023-02-07T08:46:41.750Z,1.44
2023-02-07T08:47:48.965Z,1.81
2023-02-07T08:48:51.030Z,2.13
2023-02-07T08:49:55.588Z,2.37
2023-02-07T08:51:00.101Z,2.63
2023-02-07T08:52:02.014Z,2.51
2023-02-07T08:53:06.533Z,2.47
2023-02-07T08:54:11.120Z,2.30
2023-02-07T08:55:15.628Z,2.65
2023-02-07T08:56:17.566Z,2.64
2023-02-07T08:57:23.246Z,2.69
2023-02-07T08:58:28.042Z,2.59
2023-02-07T08:59:32.601Z,2.80
2023-02-07T09:00:37.712Z,2.24
2023-02-07T09:01:42.722Z,2.61
2023-02-07T09:02:49.853Z,2.98
2023-02-07T09:03:56.952Z,3.34
2023-02-07T09:05:01.608Z,3.45
2023-02-07T09:06:06.766Z,3.61
2023-02-07T09:07:09.013Z,3.71
2023-02-07T09:08:13.576Z,3.76
2023-02-07T09:09:18.813Z,3.78
2023-02-07T09:10:23.637Z,4.09
2023-02-07T09:11:28.276Z,4.26
2023-02-07T09:12:33.056Z,4.65
2023-02-07T09:13:38.100Z,4.89
2023-02-07T09:14:43.268Z,4.86
2023-02-07T09:15:45.167Z,5.01
2023-02-07T09:16:49.712Z,4.98
2023-02-07T09:17:57.270Z,5.05
2023-02-07T09:19:01.872Z,5.18
2023-02-07T09:20:07.538Z,5.44
2023-02-07T09:21:12.202Z,5.75
2023-02-07T09:22:17.550Z,5.71
2023-02-07T09:23:19.703Z,5.83
2023-02-07T09:24:25.873Z,5.87
2023-02-07T09:25:27.862Z,6.05
2023-02-07T09:26:34.383Z,6.13
2023-02-07T09:27:38.992Z,5.59
2023-02-07T09:28:43.500Z,5.95
2023-02-07T09:29:48.128Z,6.22
2023-02-07T09:30:50.790Z,6.42
2023-02-07T09:31:55.881Z,6.03
2023-02-07T09:33:00.668Z,5.66
2023-02-07T09:34:05.513Z,5.94
2023-02-07T09:35:11.068Z,5.97
2023-02-07T09:36:19.294Z,5.42
2023-02-07T09:37:24.673Z,5.33
2023-02-07T09:38:29.407Z,4.93
2023-02-07T09:39:34.762Z,5.44
2023-02-07T09:40:39.611Z,5.84
2023-02-07T09:41:52.915Z,6.26
2023-02-07T09:42:58.946Z,5.87
2023-02-07T09:44:13.060Z,5.82
2023-02-07T09:45:21.936Z,6.33
2023-02-07T09:46:31.435Z,6.87
2023-02-07T09:47:40.087Z,6.40
2023-02-07T09:48:51.041Z,6.72
2023-02-07T09:49:59.996Z,7.14
2023-02-07T09:51:05.442Z,7.56
2023-02-07T09:52:15.356Z,7.16
2023-02-07T09:53:25.800Z,8.01
2023-02-07T09:54:36.137Z,8.00
2023-02-07T09:55:50.233Z,7.49
2023-02-07T09:56:57.123Z,7.48
2023-02-07T09:58:09.123Z,7.79
2023-02-07T09:59:25.329Z,8.25
2023-02-07T10:00:32.924Z,8.85
2023-02-07T10:01:42.824Z,9.07
2023-02-07T10:02:49.006Z,9.04
2023-02-07T10:04:16.464Z,8.81
2023-02-07T10:05:23.644Z,8.82
2023-02-07T10:06:30.526Z,8.40
2023-02-07T10:07:35.406Z,8.64
2023-02-07T10:08:41.214Z,8.94
2023-02-07T10:09:48.915Z,9.12
2023-02-07T10:11:06.006Z,9.18
2023-02-07T10:12:33.187Z,9.48
2023-02-07T10:13:58.481Z,9.51
2023-02-07T10:15:26.034Z,9.76
2023-02-07T10:16:48.862Z,10.06
2023-02-07T10:18:08.114Z,10.42
2023-02-07T10:19:26.800Z,10.41
2023-02-07T10:20:40.021Z,10.57
2023-02-07T10:21:53.023Z,10.58
2023-02-07T10:23:11.002Z,10.67
2023-02-07T10:24:38.243Z,10.68
2023-02-07T10:25:53.629Z,10.81
2023-02-07T10:27:03.203Z,11.13
2023-02-07T10:28:33.303Z,11.32
2023-02-07T10:29:51.347Z,11.13
2023-02-07T10:31:00.252Z,11.34
2023-02-07T10:32:14.087Z,11.39
2023-02-07T10:33:20.526Z,11.37
2023-02-07T10:34:31.379Z,11.31
2023-02-07T10:35:39.636Z,10.49
2023-02-07T10:36:49.426Z,11.08
2023-02-07T10:37:58.585Z,11.06
2023-02-07T10:39:09.843Z,10.82
2023-02-07T10:40:20.222Z,10.69
2023-02-07T10:41:26.965Z,10.88
2023-02-07T10:42:34.257Z,10.70
2023-02-07T10:43:36.531Z,10.98
2023-02-07T10:44:41.099Z,10.84
2023-02-07T10:45:49.842Z,11.20
2023-02-07T10:47:01.866Z,11.02
2023-02-07T10:48:16.043Z,10.94
2023-02-07T10:49:25.450Z,11.10
2023-02-07T10:50:33.300Z,10.82
2023-02-07T10:51:39.961Z,10.81
2023-02-07T10:52:49.813Z,10.69
2023-02-07T10:54:07.693Z,10.85
2023-02-07T10:55:16.633Z,10.85
2023-02-07T10:56:21.549Z,10.39
2023-02-07T10:57:27.102Z,10.84
2023-02-07T10:58:41.948Z,10.90
2023-02-07T10:59:49.101Z,10.17
2023-02-07T11:00:55.627Z,10.09
2023-02-07T11:01:57.893Z,10.26
2023-02-07T11:03:06.571Z,10.09
2023-02-07T11:04:25.421Z,10.52
2023-02-07T11:05:41.373Z,10.18
2023-02-07T11:06:46.074Z,10.13
2023-02-07T11:07:57.122Z,10.03
2023-02-07T11:09:24.308Z,10.42
2023-02-07T11:10:28.794Z,10.59
2023-02-07T11:11:36.988Z,10.53
2023-02-07T11:12:48.632Z,10.43
2023-02-07T11:13:55.250Z,10.03
2023-02-07T11:15:04.904Z,9.97
2023-02-07T11:16:11.882Z,10.11
2023-02-07T11:17:23.894Z,9.32
2023-02-07T11:18:37.822Z,9.26
2023-02-07T11:19:42.718Z,9.45
2023-02-07T11:20:56.136Z,9.47
2023-02-07T11:22:20.351Z,9.42
2023-02-07T11:23:23.129Z,9.75
2023-02-07T11:24:31.282Z,9.57
2023-02-07T11:25:41.002Z,9.32
2023-02-07T11:26:57.252Z,9.14
2023-02-07T11:28:02.421Z,9.36
2023-02-07T11:29:17.632Z,9.15
2023-02-07T11:30:22.194Z,9.43
2023-02-07T11:31:34.830Z,9.30
2023-02-07T11:32:40.771Z,9.45
2023-02-07T11:33:45.880Z,9.63
2023-02-07T11:34:54.606Z,9.63
2023-02-07T11:36:14.018Z,9.89
2023-02-07T11:37:26.102Z,8.88
2023-02-07T11:38:32.496Z,8.47
2023-02-07T11:39:37.130Z,8.59
2023-02-07T11:40:47.654Z,8.98
2023-02-07T11:41:58.170Z,9.22
2023-02-07T11:43:06.360Z,9.72
2023-02-07T11:44:19.522Z,9.31
2023-02-07T11:45:25.717Z,9.05
2023-02-07T11:46:38.371Z,8.99
2023-02-07T11:47:46.404Z,9.16
2023-02-07T11:48:54.819Z,9.43
2023-02-07T11:50:02.493Z,9.29
2023-02-07T11:51:12.407Z,8.53
2023-02-07T11:52:17.236Z,9.02
2023-02-07T11:53:24.679Z,9.04
2023-02-07T11:54:30.671Z,9.12
2023-02-07T11:55:35.825Z,9.23
2023-02-07T11:56:43.579Z,9.14
2023-02-07T11:57:49.125Z,9.40
2023-02-07T11:58:53.110Z,9.68
2023-02-07T12:00:10.783Z,9.87
2023-02-07T12:01:19.998Z,9.89
2023-02-07T12:02:28.814Z,9.74
2023-02-07T12:03:43.093Z,9.57
2023-02-07T12:04:47.895Z,9.74
2023-02-07T12:05:56.462Z,9.64
2023-02-07T12:07:08.053Z,9.74
2023-02-07T12:08:15.319Z,9.00
2023-02-07T12:09:31.532Z,8.98
2023-02-07T12:10:39.744Z,9.27
2023-02-07T12:11:45.356Z,9.17
2023-02-07T12:12:50.098Z,9.26
2023-02-07T12:13:58.494Z,9.38
2023-02-07T12:15:09.264Z,9.25
2023-02-07T12:16:20.685Z,9.48
2023-02-07T12:17:33.399Z,9.26
2023-02-07T12:18:43.221Z,9.53
2023-02-07T12:19:52.921Z,9.68
2023-02-07T12:21:04.985Z,9.54
2023-02-07T12:22:19.547Z,9.46
2023-02-07T12:23:41.650Z,9.49
2023-02-07T12:24:52.567Z,9.02
2023-02-07T12:26:01.435Z,8.76
2023-02-07T12:27:14.788Z,9.00
2023-02-07T12:28:29.190Z,8.92
2023-02-07T12:29:47.053Z,8.96
2023-02-07T12:30:56.422Z,8.87
2023-02-07T12:32:07.927Z,8.87
2023-02-07T12:33:18.076Z,8.51
2023-02-07T12:34:30.312Z,8.41
2023-02-07T12:35:55.602Z,8.59
2023-02-07T12:37:06.391Z,8.47
2023-02-07T12:38:20.329Z,8.38
2023-02-07T12:39:34.221Z,8.54
2023-02-07T12:40:45.948Z,8.33
2023-02-07T12:41:56.731Z,8.41
2023-02-07T12:43:05.750Z,8.68
2023-02-07T12:44:22.361Z,8.30
2023-02-07T12:45:40.514Z,8.37
2023-02-07T12:46:54.166Z,8.72
2023-02-07T12:48:06.826Z,8.92
2023-02-07T12:49:28.565Z,9.02
2023-02-07T12:50:53.232Z,8.99
2023-02-07T12:52:11.095Z,9.02
2023-02-07T12:53:33.766Z,9.15
2023-02-07T12:54:52.225Z,9.06
2023-02-07T12:56:07.134Z,9.10
2023-02-07T12:57:15.631Z,8.79
2023-02-07T12:58:42.033Z,8.73
2023-02-07T12:59:57.680Z,8.70
2023-02-07T13:01:09.043Z,8.64
2023-02-07T13:02:31.735Z,8.44
2023-02-07T13:04:14.171Z,8.17
2023-02-07T13:05:53.826Z,8.19
2023-02-07T13:07:16.576Z,8.15
2023-02-07T13:08:34.945Z,8.34
2023-02-07T13:09:49.219Z,8.46
2023-02-07T13:11:03.000Z,8.41
2023-02-07T13:12:17.659Z,8.52
2023-02-07T13:13:26.596Z,8.02
2023-02-07T13:14:42.263Z,8.25
2023-02-07T13:15:55.203Z,8.32
2023-02-07T13:17:21.569Z,8.25
2023-02-07T13:18:37.640Z,8.54
2023-02-07T13:19:50.370Z,8.54
2023-02-07T13:21:04.241Z,8.86
2023-02-07T13:22:11.943Z,8.89
2023-02-07T13:23:20.749Z,8.90
2023-02-07T13:24:31.741Z,9.04
2023-02-07T13:25:38.975Z,9.40
2023-02-07T13:26:49.280Z,9.38
2023-02-07T13:27:57.526Z,9.62
2023-02-07T13:29:06.517Z,9.73
2023-02-07T13:30:17.859Z,9.92
2023-02-07T13:31:25.267Z,9.92
2023-02-07T13:32:28.519Z,10.07
2023-02-07T13:33:37.134Z,10.38
2023-02-07T13:34:47.882Z,10.22
2023-02-07T13:35:50.063Z,10.43
2023-02-07T13:36:58.733Z,10.71
2023-02-07T13:38:10.236Z,10.44
2023-02-07T13:39:28.470Z,10.55
2023-02-07T13:40:45.152Z,10.21
2023-02-07T13:42:00.518Z,10.71
2023-02-07T13:43:12.282Z,10.83
2023-02-07T13:44:21.937Z,10.69
2023-02-07T13:45:38.072Z,11.05
2023-02-07T13:46:56.432Z,11.18
2023-02-07T13:48:08.785Z,11.57
2023-02-07T13:49:19.581Z,11.07
2023-02-07T13:50:38.977Z,11.73
2023-02-07T13:51:52.613Z,12.03
2023-02-07T13:53:05.905Z,12.36
2023-02-07T13:54:25.483Z,12.44
2023-02-07T13:55:37.726Z,12.50
2023-02-07T13:57:11.493Z,12.85
2023-02-07T13:58:58.389Z,13.53
2023-02-07T14:00:16.352Z,13.96
2023-02-07T14:01:23.723Z,14.41
2023-02-07T14:02:28.411Z,14.63
2023-02-07T14:03:35.367Z,14.91
2023-02-07T14:04:51.244Z,15.24
2023-02-07T14:05:55.984Z,15.71
2023-02-07T14:07:12.052Z,16.09
2023-02-07T14:08:25.116Z,15.78
2023-02-07T14:09:36.291Z,15.26
2023-02-07T14:10:45.852Z,15.85
2023-02-07T14:12:00.399Z,16.09
2023-02-07T14:13:02.805Z,16.07
2023-02-07T14:14:15.987Z,15.84
2023-02-07T14:15:56.415Z,15.73
2023-02-07T14:17:03.013Z,16.20
2023-02-07T14:18:28.456Z,16.32
2023-02-07T14:19:55.075Z,16.18
2023-02-07T14:21:01.601Z,15.32
2023-02-07T14:22:17.813Z,15.37
2023-02-07T14:23:23.093Z,15.99
2023-02-07T14:24:35.743Z,16.37
2023-02-07T14:25:44.806Z,16.65
2023-02-07T14:27:07.384Z,16.49
2023-02-07T14:29:41.820Z,17.50
2023-02-07T14:31:02.733Z,16.95
2023-02-07T14:32:29.691Z,16.94
2023-02-07T14:33:37.865Z,17.57
2023-02-07T14:35:05.023Z,18.00
2023-02-07T14:36:27.832Z,17.22
2023-02-07T14:37:41.326Z,17.49
2023-02-07T14:39:01.989Z,17.86
2023-02-07T14:40:10.733Z,17.00
2023-02-07T14:41:17.939Z,17.45
2023-02-07T14:42:25.526Z,17.56
2023-02-07T14:43:38.785Z,17.47